Terminal Aerodrome Forecast
Issued by NWS Lake Charles, LA

Home | Current Version | Previous Version | Text Only | Print | Product List | Glossary On
Versions: 1 2 3 4 5 6 7 8 9 10 11 12 13 14
584
FTUS44 KLCH 222327
TAFAEX
TAF
KAEX 222327Z 2300/2324 19005KT P6SM VCSH FEW035 SCT120 BKN250
     FM230200 VRB03KT P6SM FEW035 BKN250
     FM231800 23007KT P6SM FEW022 BKN030 BKN250
      TEMPO 2318/2322 VRB13G20KT 2SM -TSRA SCT020 BKN035CB=

USA.gov is the U.S. government's official web portal to all federal, state and local government web resources and services.